Entiat, WA (98822)

5:33 PM PDT on July 01, 2015 (GMT -0700)
RAWS | | Change Station
CLOSE
Current Station
Personal Weather Station
Location: Entiat, WA
Elevation: 795 ft
Nearby Weather Stations
Active Advisory: Fire Weather Watch Active Notice: Record Report

Elev 795 ft 47.67 °N, 120.21 °W | Updated 1 hour ago

Clear
Clear
99.0 °F
Feels Like 99.0 °F
N
6.0
Wind Variable Wind from NNE
Gusts 9.0 mph

Today
High -- | Low -- °F
--% Chance of Precip.
Yesterday
High -- | Low -- °F
Precip. -- in
5:06 AM 9:02 PM
Full, 100% visible
Pressure 29.85 in
Visibility 10.0 miles
Clouds Clear
Dew Point 49.0 °F
Humidity 19%
Rainfall in
Snow Depth Not available.
UV 5 out of 12
Pollen 8.00 out of 12
Air Quality Not available.
Flu Activity Not available.
METAR KEAT 012355Z AUTO 15004KT 10SM CLR 37/04 A2989 RMK AO2 SLP107 T03720044 10372 20294 56019

More Conditions Fewer Conditions

Pressure 29.85 in
Visibility 10.0 miles
Clouds Clear
Dew Point 49.0 °F
Humidity 19%
Rainfall in
Snow Depth Not available.
UV 5 out of 12
Pollen 8.00 out of 12
Air Quality Not available.
Flu Activity Not available.
METAR KEAT 012355Z AUTO 15004KT 10SM CLR 37/04 A2989 RMK AO2 SLP107 T03720044 10372 20294 56019

More Conditions Fewer Conditions

10-Day Weather Forecast

×

Almanac

Astronomy

Jul. 01, 2015 Rise Set
Actual Time
Civil Twilight
Nautical Twilight
Astronomical Twilight
Moon
Length of Visible Light
Length of Day
Tomorrow will be .
, % of the Moon is Illuminated

Today's Extremes

State Highs State Lows

Community

WunderPhotos

Upload Photos

1,834,355 photos uploaded!

WunderBlogs® & News

Nearby

Air Quality

  Air Quality AQ Index Pollutant
Not available.

Snow Depth

Station Depth Elevation

Earthquake Activity

City Distance Mag. Time & Date
Minimum magnitude displayed is 2.5.

Coastal Water Temperatures

Place Temperature

Stations

Nearby Weather Stations

Station Location Temp. Windchill Dew Point Humidity Wind Precip. Elev Updated Type
                   
Fire Weather Watch
Statement as of 3:24 PM PDT on July 01, 2015

... Fire Weather Watch in effect from Friday afternoon through
Friday evening for wind and low relative humidity for Wenatchee
and valleys west into the Cascades... .

The National Weather Service in Spokane has issued a Fire Weather
Watch for wind and low relative humidity... which is in effect
from Friday afternoon through Friday evening.

* Affected area: fire weather zone 677 East Washington central
Cascade valleys (zone 677).

* Winds: northwest 15 to 25 mph with gusts to 35 mph.

* Relative humidities: 11 to 19 percent.

* Impacts: rapid fire spread is possible with existing fires or
new fire starts in the area.

Precautionary/preparedness actions...

A Fire Weather Watch means that critical fire weather conditions
are forecast to occur. Listen for later forecasts and possible
red flag warnings.